Castet, France

11:07 AM CET on December 03, 2016 (GMT +0100)
Pau / Pyrenees | | Change Station

Elev 607 ft 43.38 °N, 0.42 °W | Updated 7 minutes ago

Clear
Clear
50 °F
Feels Like 50 °F
N
1
Wind Variable Wind from Variable

Today
High -- | Low -- °F
--% Chance of Precip.
Yesterday
High -- | Low -- °F
Precip. -- in
Pressure 29.95 in
Visibility -9999.0 miles
Clouds
Dew Point 32 °F
Humidity 50%
Rainfall 0.00 in
Snow Depth Not available.
8:15 AM 5:27 PM
Waxing Crescent, 14% visible
METAR LFBP 031000Z AUTO VRB01KT CAVOK 10/00 Q1014 NOSIG
Pressure 29.95 in
Visibility -9999.0 miles
Clouds
Dew Point 32 °F
Humidity 50%
Rainfall 0.00 in
Snow Depth Not available.
8:15 AM 5:27 PM
Waxing Crescent, 14% visible
METAR LFBP 031000Z AUTO VRB01KT CAVOK 10/00 Q1014 NOSIG

10-Day Weather Forecast

×

Almanac

Astronomy

Dec. 03, 2016 Rise Set
Actual Time
Civil Twilight
Nautical Twilight
Astronomical Twilight
Moon
Length of Visible Light
Length of Day
Tomorrow will be .
, % of the Moon is Illuminated

Today's Extremes

Country Highs Country Lows

Community

WunderPhotos

Upload Photos

1,955,434 photos uploaded!

WunderBlog® & News

Nearby

Air Quality

  Air Quality AQ Index Pollutant
Not available.

Snow Depth

Station Depth Elevation

Earthquake Activity

City Distance Mag. Time & Date
Minimum magnitude displayed is 2.5.

Coastal Water Temperatures

Place Temperature

Stations

Nearby Weather Stations

Station Location Temp. Windchill Dew Point Humidity Wind Precip. Elev Updated Type